Time;durP1;ratioP1;P1;durP2;ratioP2;P2;SDS_P1;SDS_P2;PMS_P1;PMS_P2;Temp;Humidity;BMP_temperature;BMP_pressure;BME280_temperature;BME280_humidity;BME280_pressure;Samples;Min_cycle;Max_cycle;Signal;HPM_P1;HPM_P2
2023/12/13 00:01:25;;;;;;;2.63;0.90;;;9.40;99.90;;;;;;5025415;28;20128;-80
2023/12/13 00:03:54;;;;;;;3.00;1.50;;;9.30;99.90;;;;;;5044085;28;20045;-79
2023/12/13 00:06:20;;;;;;;2.60;0.80;;;9.40;99.90;;;;;;5045198;28;20780;-79
2023/12/13 00:08:46;;;;;;;3.60;1.38;;;9.40;99.90;;;;;;5046628;28;20354;-79
2023/12/13 00:11:11;;;;;;;1.98;1.10;;;9.40;99.90;;;;;;5039515;28;20473;-80
2023/12/13 00:13:37;;;;;;;2.03;0.80;;;9.40;99.90;;;;;;5060352;28;20490;-78
2023/12/13 00:16:03;;;;;;;3.05;1.08;;;9.30;99.90;;;;;;5078705;28;20021;-79
2023/12/13 00:18:29;;;;;;;2.55;0.73;;;9.30;99.90;;;;;;5045153;28;20406;-79
2023/12/13 00:20:55;;;;;;;3.58;0.90;;;9.40;99.90;;;;;;5078884;28;20066;-80
2023/12/13 00:23:21;;;;;;;2.28;0.82;;;9.40;99.90;;;;;;5077420;28;20087;-79
2023/12/13 00:25:47;;;;;;;2.28;1.10;;;9.40;99.90;;;;;;5053897;28;20036;-79
2023/12/13 00:28:13;;;;;;;2.92;0.90;;;9.40;99.90;;;;;;5080171;28;20037;-79
2023/12/13 00:30:38;;;;;;;3.53;0.80;;;9.30;99.90;;;;;;5046890;28;20025;-79
2023/12/13 00:33:04;;;;;;;2.05;0.60;;;9.30;99.90;;;;;;5050420;28;20186;-79
2023/12/13 00:35:29;;;;;;;3.05;0.70;;;9.20;99.90;;;;;;5033141;28;20032;-79
2023/12/13 00:37:55;;;;;;;3.85;0.70;;;9.20;99.90;;;;;;5036511;28;20025;-79
2023/12/13 00:40:22;;;;;;;2.63;0.60;;;9.20;99.90;;;;;;5045302;28;20025;-79
2023/12/13 00:42:48;;;;;;;1.70;0.60;;;9.20;99.90;;;;;;5064609;28;20040;-79
2023/12/13 00:45:14;;;;;;;2.35;0.80;;;9.30;99.90;;;;;;5081449;28;20392;-80
2023/12/13 00:47:41;;;;;;;2.72;0.80;;;9.30;99.90;;;;;;5047514;28;20035;-79
2023/12/13 00:50:07;;;;;;;1.80;0.60;;;9.30;99.90;;;;;;5046574;28;20029;-79
2023/12/13 00:52:33;;;;;;;3.17;1.08;;;9.30;99.90;;;;;;5048776;28;20045;-80
2023/12/13 00:55:00;;;;;;;3.40;1.15;;;9.30;99.90;;;;;;5032294;28;20116;-79
2023/12/13 00:57:27;;;;;;;3.80;1.45;;;9.40;99.90;;;;;;5050111;28;20067;-80
2023/12/13 00:59:52;;;;;;;3.47;1.45;;;9.30;99.90;;;;;;5076696;28;20449;-81
2023/12/13 01:02:18;;;;;;;2.17;1.20;;;9.40;99.90;;;;;;5050049;28;20104;-79
2023/12/13 01:04:44;;;;;;;4.40;1.10;;;9.40;99.90;;;;;;5050074;28;20028;-79
2023/12/13 01:07:10;;;;;;;1.83;0.80;;;9.30;99.90;;;;;;5040952;28;20370;-79
2023/12/13 01:09:36;;;;;;;2.28;0.60;;;9.40;99.90;;;;;;5079413;28;20021;-80
2023/12/13 01:12:02;;;;;;;4.07;0.93;;;9.40;99.90;;;;;;5067081;28;20068;-79
2023/12/13 01:14:28;;;;;;;2.45;0.90;;;9.40;99.90;;;;;;5049381;28;20059;-79
2023/12/13 01:16:54;;;;;;;2.00;0.70;;;9.40;99.90;;;;;;5049833;28;20036;-78
2023/12/13 01:19:19;;;;;;;1.77;0.85;;;9.40;99.90;;;;;;5038296;28;20029;-78
2023/12/13 01:21:45;;;;;;;2.42;0.70;;;9.50;99.90;;;;;;5050150;28;20033;-79
2023/12/13 01:24:11;;;;;;;1.63;0.60;;;9.40;99.90;;;;;;5049852;28;20512;-79
2023/12/13 01:26:36;;;;;;;1.90;0.80;;;9.50;99.90;;;;;;5079992;28;20040;-80
2023/12/13 01:29:02;;;;;;;1.92;0.50;;;9.50;99.90;;;;;;5044066;28;20112;-80
2023/12/13 01:31:28;;;;;;;1.83;0.40;;;9.40;99.90;;;;;;5046564;28;20033;-79
2023/12/13 01:33:54;;;;;;;2.50;0.47;;;9.40;99.90;;;;;;5048686;28;20040;-79
2023/12/13 01:36:19;;;;;;;1.33;0.40;;;9.40;99.90;;;;;;5043712;28;20504;-79
2023/12/13 01:38:45;;;;;;;1.10;0.30;;;9.30;99.90;;;;;;5048149;28;20033;-79
2023/12/13 01:41:11;;;;;;;1.67;0.30;;;9.40;99.90;;;;;;5048399;28;20025;-79
2023/12/13 01:43:36;;;;;;;2.47;0.57;;;9.30;99.90;;;;;;5048547;28;20033;-80
2023/12/13 01:46:02;;;;;;;1.58;0.60;;;9.30;99.90;;;;;;5049094;28;20035;-80
2023/12/13 01:48:29;;;;;;;2.38;0.70;;;9.30;99.90;;;;;;5065840;28;20123;-80
2023/12/13 01:50:55;;;;;;;2.83;0.70;;;9.30;99.90;;;;;;5043897;28;20500;-79
2023/12/13 01:53:23;;;;;;;2.00;0.50;;;9.30;99.90;;;;;;5038681;28;20440;-79
2023/12/13 01:55:50;;;;;;;1.48;0.50;;;9.20;99.90;;;;;;5031540;28;20033;-80
2023/12/13 01:58:18;;;;;;;1.58;0.30;;;9.30;99.90;;;;;;5049805;28;20032;-80
2023/12/13 02:00:45;;;;;;;1.50;0.40;;;9.20;99.90;;;;;;5033534;28;20044;-79
2023/12/13 02:03:11;;;;;;;0.80;0.30;;;9.20;99.90;;;;;;5050492;28;20481;-80
2023/12/13 02:05:38;;;;;;;0.98;0.30;;;9.20;99.90;;;;;;5060865;28;20075;-79
2023/12/13 02:08:04;;;;;;;0.93;0.40;;;9.20;99.90;;;;;;5081187;28;20481;-80
2023/12/13 02:10:30;;;;;;;2.35;0.40;;;9.10;99.90;;;;;;5042071;28;20025;-79
2023/12/13 02:12:56;;;;;;;2.28;0.30;;;9.10;99.90;;;;;;5045335;28;20039;-80
2023/12/13 02:15:22;;;;;;;2.65;0.30;;;9.10;99.90;;;;;;5048013;28;20112;-79
2023/12/13 02:17:51;;;;;;;1.48;0.30;;;9.10;99.90;;;;;;5080407;28;20067;-79
2023/12/13 02:20:18;;;;;;;1.73;0.45;;;9.10;99.90;;;;;;5082030;28;20100;-79
2023/12/13 02:22:44;;;;;;;1.02;0.50;;;9.00;99.90;;;;;;5035944;28;20392;-79
2023/12/13 02:25:14;;;;;;;1.70;0.50;;;9.00;99.90;;;;;;5077251;28;20021;-79
2023/12/13 02:27:41;;;;;;;1.02;0.50;;;9.00;99.90;;;;;;5038720;28;20021;-79
2023/12/13 02:30:08;;;;;;;1.40;0.50;;;9.00;99.90;;;;;;5041483;28;20025;-79
2023/12/13 02:32:33;;;;;;;1.40;0.40;;;9.00;99.90;;;;;;5046977;28;20052;-80
2023/12/13 02:34:59;;;;;;;0.90;0.40;;;9.00;99.90;;;;;;5047540;28;20021;-79
2023/12/13 02:37:24;;;;;;;1.92;0.40;;;9.00;99.90;;;;;;5048254;28;20025;-80
2023/12/13 02:39:50;;;;;;;1.10;0.30;;;9.00;99.90;;;;;;5046352;28;20056;-79
2023/12/13 02:42:16;;;;;;;1.77;0.40;;;9.00;99.90;;;;;;5036325;28;20021;-80
2023/12/13 02:44:44;;;;;;;1.67;0.43;;;9.00;99.90;;;;;;5046812;28;20029;-79
2023/12/13 02:47:10;;;;;;;1.50;0.30;;;9.10;99.90;;;;;;5060389;28;20446;-78
2023/12/13 02:49:36;;;;;;;1.85;0.38;;;9.10;99.90;;;;;;5060884;28;20060;-79
2023/12/13 02:52:01;;;;;;;2.17;0.50;;;9.10;99.90;;;;;;5045837;28;20519;-80
2023/12/13 02:54:27;;;;;;;1.45;0.40;;;9.10;99.90;;;;;;5047586;28;20032;-79
2023/12/13 02:56:52;;;;;;;1.60;0.40;;;9.10;99.90;;;;;;5074774;28;20037;-80
2023/12/13 02:59:18;;;;;;;3.58;0.40;;;9.10;99.90;;;;;;5078194;28;20025;-80
2023/12/13 03:01:44;;;;;;;2.67;0.50;;;9.10;99.90;;;;;;5046834;28;20049;-79
2023/12/13 03:04:09;;;;;;;1.20;0.40;;;9.10;99.90;;;;;;5077063;28;20033;-80
2023/12/13 03:06:35;;;;;;;1.50;0.50;;;9.10;99.90;;;;;;5075727;28;20495;-80
2023/12/13 03:09:01;;;;;;;1.25;0.70;;;9.10;99.90;;;;;;5048252;28;20048;-80
2023/12/13 03:11:27;;;;;;;1.90;0.60;;;9.10;99.90;;;;;;5046584;28;20158;-79
2023/12/13 03:13:53;;;;;;;2.80;0.50;;;9.10;99.90;;;;;;5078002;28;20033;-80
2023/12/13 03:16:19;;;;;;;1.52;0.50;;;9.10;99.90;;;;;;5034312;28;20481;-80
2023/12/13 03:18:44;;;;;;;1.80;0.57;;;9.10;99.90;;;;;;5044991;28;20384;-80
2023/12/13 03:21:10;;;;;;;1.27;0.40;;;9.10;99.90;;;;;;5037887;28;20025;-79
2023/12/13 03:23:36;;;;;;;1.40;0.40;;;9.10;99.90;;;;;;5078434;28;20028;-80
2023/12/13 03:26:02;;;;;;;0.80;0.40;;;9.10;99.90;;;;;;5036232;28;20017;-80
2023/12/13 03:28:28;;;;;;;1.42;0.30;;;9.10;99.90;;;;;;5045795;28;20029;-81
2023/12/13 03:30:54;;;;;;;1.45;0.30;;;9.10;99.90;;;;;;5046333;28;20059;-80
2023/12/13 03:33:19;;;;;;;0.95;0.30;;;9.10;99.90;;;;;;5062706;28;20044;-78
2023/12/13 03:35:45;;;;;;;0.88;0.20;;;9.10;99.90;;;;;;5048328;28;20480;-79
2023/12/13 03:38:11;;;;;;;0.57;0.20;;;9.10;99.90;;;;;;5076192;28;20052;-79
2023/12/13 03:40:36;;;;;;;1.33;0.30;;;9.10;99.90;;;;;;5042409;28;20389;-80
2023/12/13 03:43:02;;;;;;;0.85;0.30;;;9.10;99.90;;;;;;5046994;28;20021;-79
2023/12/13 03:45:28;;;;;;;1.02;0.30;;;9.20;99.90;;;;;;5044679;28;20033;-79
2023/12/13 03:47:53;;;;;;;0.95;0.30;;;9.20;99.90;;;;;;5042430;28;20521;-79
2023/12/13 03:50:20;;;;;;;1.48;0.32;;;9.20;99.90;;;;;;5047609;28;20116;-80
2023/12/13 03:52:45;;;;;;;1.98;0.50;;;9.10;99.90;;;;;;5045021;28;20037;-79
2023/12/13 03:55:12;;;;;;;1.10;0.30;;;9.10;99.90;;;;;;5033624;28;20024;-80
2023/12/13 03:57:39;;;;;;;1.52;0.40;;;9.20;99.90;;;;;;5034517;28;20119;-80
2023/12/13 04:00:06;;;;;;;1.80;0.40;;;9.20;99.90;;;;;;5041225;28;20045;-80
2023/12/13 04:02:38;;;;;;;0.95;0.30;;;9.20;99.90;;;;;;5046833;28;20033;-80
2023/12/13 04:05:04;;;;;;;0.88;0.35;;;9.20;99.90;;;;;;5031659;28;20381;-79
2023/12/13 04:07:30;;;;;;;1.45;0.43;;;9.20;99.90;;;;;;5042495;28;20087;-81
2023/12/13 04:09:55;;;;;;;1.50;0.57;;;9.20;99.90;;;;;;5042310;28;20022;-80
2023/12/13 04:12:21;;;;;;;3.47;0.50;;;9.20;99.90;;;;;;5044757;28;20040;-80
2023/12/13 04:14:47;;;;;;;2.67;0.98;;;9.20;99.90;;;;;;5027446;28;20116;-80
2023/12/13 04:17:13;;;;;;;2.83;1.65;;;9.20;99.90;;;;;;5046730;28;20493;-81
2023/12/13 04:19:38;;;;;;;3.05;1.13;;;9.20;99.90;;;;;;5043216;28;20031;-81
2023/12/13 04:22:04;;;;;;;1.85;0.75;;;9.20;99.90;;;;;;5062109;28;20052;-81
2023/12/13 04:24:30;;;;;;;2.38;0.65;;;9.30;99.90;;;;;;5047000;28;20029;-80
2023/12/13 04:26:55;;;;;;;2.17;0.50;;;9.20;99.90;;;;;;5042814;28;20110;-80
2023/12/13 04:29:21;;;;;;;1.98;0.80;;;9.30;99.90;;;;;;5023674;28;20024;-80
2023/12/13 04:31:47;;;;;;;1.42;0.68;;;9.30;99.90;;;;;;5032872;28;20500;-80
2023/12/13 04:34:13;;;;;;;2.65;0.68;;;9.30;99.90;;;;;;5062742;28;20086;-79
2023/12/13 04:36:38;;;;;;;1.58;0.63;;;9.30;99.90;;;;;;5074192;28;20116;-79
2023/12/13 04:39:05;;;;;;;2.35;0.80;;;9.30;99.90;;;;;;5042776;28;20033;-79
2023/12/13 04:41:32;;;;;;;1.50;0.70;;;9.30;99.90;;;;;;5046157;28;20115;-79
2023/12/13 04:43:58;;;;;;;2.05;0.60;;;9.30;99.90;;;;;;5044459;28;20102;-80
2023/12/13 04:46:23;;;;;;;1.88;0.60;;;9.30;99.90;;;;;;5045620;28;20087;-80
2023/12/13 04:48:49;;;;;;;2.45;0.82;;;9.30;99.90;;;;;;5046680;28;20031;-80
2023/12/13 04:51:14;;;;;;;3.38;0.52;;;9.30;99.90;;;;;;5047931;28;20029;-79
2023/12/13 04:53:41;;;;;;;2.67;0.80;;;9.30;99.90;;;;;;5042124;28;20041;-80
2023/12/13 04:56:07;;;;;;;1.83;0.80;;;9.30;99.90;;;;;;5045547;28;20025;-80
2023/12/13 04:58:33;;;;;;;4.20;0.88;;;9.30;99.90;;;;;;5044902;28;20025;-80
2023/12/13 05:00:59;;;;;;;2.90;1.10;;;9.30;99.90;;;;;;5046930;28;20041;-80
2023/12/13 05:03:26;;;;;;;3.03;1.25;;;9.30;99.90;;;;;;5043614;28;20021;-79
2023/12/13 05:05:52;;;;;;;2.05;0.70;;;9.30;99.90;;;;;;5074696;28;20078;-80
2023/12/13 05:08:17;;;;;;;2.28;0.80;;;9.30;99.90;;;;;;5043858;28;20021;-81
2023/12/13 05:10:43;;;;;;;2.53;0.80;;;9.30;99.90;;;;;;5054058;28;20025;-80
2023/12/13 05:13:10;;;;;;;4.63;0.70;;;9.30;99.90;;;;;;5037103;28;20095;-81
2023/12/13 05:15:35;;;;;;;2.85;0.60;;;9.30;99.90;;;;;;5033574;28;20163;-80
2023/12/13 05:18:02;;;;;;;2.13;0.65;;;9.30;99.90;;;;;;5050424;28;20028;-82
2023/12/13 05:20:28;;;;;;;2.58;0.80;;;9.40;99.90;;;;;;5049767;28;20439;-82
2023/12/13 05:22:53;;;;;;;1.63;0.60;;;9.30;99.90;;;;;;5049236;28;20035;-80
2023/12/13 05:25:20;;;;;;;2.35;0.55;;;9.30;99.90;;;;;;5047348;28;20481;-80
2023/12/13 05:27:45;;;;;;;3.55;0.70;;;9.30;99.90;;;;;;5049789;28;20477;-81
2023/12/13 05:30:11;;;;;;;1.98;0.50;;;9.30;99.90;;;;;;5036844;28;20028;-80
2023/12/13 05:32:37;;;;;;;2.53;1.05;;;9.30;99.90;;;;;;5045160;28;20164;-79
2023/12/13 05:35:03;;;;;;;2.88;0.55;;;9.30;99.90;;;;;;5049857;28;20029;-80
2023/12/13 05:37:29;;;;;;;5.50;0.60;;;9.30;99.90;;;;;;5047316;28;20028;-83
2023/12/13 05:39:54;;;;;;;2.33;0.60;;;9.30;99.90;;;;;;5046767;28;20029;-84
2023/12/13 05:42:20;;;;;;;2.83;0.60;;;9.30;99.90;;;;;;5049838;28;20033;-83
2023/12/13 05:44:46;;;;;;;1.67;0.50;;;9.30;99.90;;;;;;5048721;28;20029;-83
2023/12/13 05:47:13;;;;;;;3.00;0.60;;;9.30;99.90;;;;;;5065741;28;20500;-82
2023/12/13 05:49:39;;;;;;;1.90;0.60;;;9.30;99.90;;;;;;5049430;28;20154;-83
2023/12/13 05:52:06;;;;;;;2.58;0.50;;;9.30;99.90;;;;;;5049416;28;20503;-80
2023/12/13 05:54:35;;;;;;;4.10;0.50;;;9.30;99.90;;;;;;5046445;28;20025;-84
2023/12/13 05:57:00;;;;;;;2.08;0.60;;;9.30;99.90;;;;;;5067245;28;20078;-83
2023/12/13 05:59:26;;;;;;;3.75;0.60;;;9.30;99.90;;;;;;5049374;28;20119;-83
2023/12/13 06:01:52;;;;;;;1.77;0.60;;;9.30;99.90;;;;;;5031096;28;20138;-82
2023/12/13 06:04:18;;;;;;;1.52;0.57;;;9.30;99.90;;;;;;5049115;28;20043;-82
2023/12/13 06:06:45;;;;;;;2.05;0.50;;;9.30;99.90;;;;;;5050538;28;20021;-83
2023/12/13 06:09:10;;;;;;;3.47;0.63;;;9.30;99.90;;;;;;5031718;28;20032;-84
2023/12/13 06:11:36;;;;;;;1.55;0.70;;;9.30;99.90;;;;;;5079267;28;20029;-82
2023/12/13 06:14:02;;;;;;;1.98;0.50;;;9.30;99.90;;;;;;5044713;28;20032;-82
2023/12/13 06:16:28;;;;;;;3.65;0.50;;;9.30;99.90;;;;;;5047902;28;20029;-83
2023/12/13 06:18:54;;;;;;;3.40;0.60;;;9.30;99.90;;;;;;5048700;28;20039;-83
2023/12/13 06:21:19;;;;;;;7.43;0.82;;;9.30;99.90;;;;;;5043163;28;20025;-83
2023/12/13 06:23:45;;;;;;;2.70;0.60;;;9.40;99.90;;;;;;5076861;28;20025;-79
2023/12/13 06:26:10;;;;;;;2.58;0.60;;;9.30;99.90;;;;;;5077713;28;20052;-82
2023/12/13 06:28:36;;;;;;;3.20;0.60;;;9.30;99.90;;;;;;5037681;28;20052;-80
2023/12/13 06:31:02;;;;;;;3.25;0.60;;;9.30;99.90;;;;;;5044572;28;20444;-79
2023/12/13 06:33:28;;;;;;;1.67;0.50;;;9.30;99.90;;;;;;5037525;28;20040;-82
2023/12/13 06:35:53;;;;;;;2.70;0.50;;;9.30;99.90;;;;;;5048885;28;20597;-82
2023/12/13 06:38:19;;;;;;;1.55;0.60;;;9.30;99.90;;;;;;5027154;28;20116;-81
2023/12/13 06:40:45;;;;;;;4.20;0.60;;;9.30;99.90;;;;;;5046512;28;20060;-82
2023/12/13 06:43:10;;;;;;;1.90;0.50;;;9.40;99.90;;;;;;5077261;28;20044;-82
2023/12/13 06:45:36;;;;;;;2.17;0.63;;;9.40;99.90;;;;;;5029634;28;20053;-81
2023/12/13 06:48:02;;;;;;;3.40;0.88;;;9.40;99.90;;;;;;5046569;28;20090;-83
2023/12/13 06:50:28;;;;;;;4.85;0.90;;;9.40;99.90;;;;;;5042347;28;20025;-83
2023/12/13 06:52:54;;;;;;;3.00;0.70;;;9.40;99.90;;;;;;5046159;28;20045;-82
2023/12/13 06:55:21;;;;;;;2.65;0.70;;;9.40;99.90;;;;;;5072016;28;20121;-82
2023/12/13 06:57:47;;;;;;;1.50;0.70;;;9.40;99.90;;;;;;5046356;28;20053;-80
2023/12/13 07:00:14;;;;;;;2.60;1.10;;;9.40;99.90;;;;;;5080374;28;20045;-80
2023/12/13 07:02:39;;;;;;;2.67;0.75;;;9.40;99.90;;;;;;5038520;28;20033;-80
2023/12/13 07:05:07;;;;;;;2.58;0.80;;;9.50;99.90;;;;;;5042975;28;20032;-80
2023/12/13 07:07:33;;;;;;;4.22;0.88;;;9.50;99.90;;;;;;5043985;28;20518;-80
2023/12/13 07:09:59;;;;;;;3.30;0.98;;;9.40;99.90;;;;;;5044978;28;20104;-80
2023/12/13 07:12:28;;;;;;;3.05;0.80;;;9.40;99.90;;;;;;5048565;28;20514;-79
2023/12/13 07:14:57;;;;;;;5.75;1.08;;;9.50;99.90;;;;;;5064823;28;20021;-80
2023/12/13 07:17:23;;;;;;;2.47;0.60;;;9.50;99.90;;;;;;5045025;28;20111;-84
2023/12/13 07:19:50;;;;;;;4.47;1.02;;;9.50;99.90;;;;;;5048376;28;20155;-84
2023/12/13 07:22:15;;;;;;;2.15;0.77;;;9.50;99.90;;;;;;5043821;28;20020;-83
2023/12/13 07:24:41;;;;;;;4.15;0.90;;;9.50;99.90;;;;;;5048882;28;20033;-84
2023/12/13 07:27:07;;;;;;;3.08;0.77;;;9.40;99.90;;;;;;5045213;28;20021;-83
2023/12/13 07:29:33;;;;;;;2.63;0.75;;;9.50;99.90;;;;;;5047583;28;20032;-83
2023/12/13 07:31:59;;;;;;;5.72;0.85;;;9.50;99.90;;;;;;5045019;28;20482;-82
2023/12/13 07:34:25;;;;;;;4.20;0.77;;;9.50;99.90;;;;;;5045816;28;20259;-84
2023/12/13 07:36:53;;;;;;;3.13;0.70;;;9.50;99.90;;;;;;5048801;28;20017;-82
2023/12/13 07:39:19;;;;;;;3.55;0.85;;;9.50;99.90;;;;;;5077672;28;20504;-80
2023/12/13 07:41:44;;;;;;;3.65;0.70;;;9.60;99.90;;;;;;5046187;28;20060;-79
2023/12/13 07:44:10;;;;;;;4.15;0.90;;;9.60;99.90;;;;;;5062140;28;20033;-80
2023/12/13 07:46:37;;;;;;;3.83;0.80;;;9.60;99.90;;;;;;5047444;28;20055;-80
2023/12/13 07:49:05;;;;;;;2.35;0.80;;;9.60;99.90;;;;;;5064055;28;20453;-80
2023/12/13 07:51:32;;;;;;;4.15;1.13;;;9.60;99.90;;;;;;5046086;28;20477;-79
2023/12/13 07:53:59;;;;;;;3.35;0.90;;;9.60;99.90;;;;;;5057287;28;20033;-80
2023/12/13 07:56:25;;;;;;;4.93;1.35;;;9.60;99.90;;;;;;5045058;28;20096;-79
2023/12/13 07:58:51;;;;;;;3.97;1.00;;;9.60;99.90;;;;;;5046257;28;20025;-79
2023/12/13 08:01:17;;;;;;;5.20;0.93;;;9.60;99.90;;;;;;5033100;28;20043;-79
2023/12/13 08:03:45;;;;;;;3.72;0.80;;;9.60;99.90;;;;;;5045388;28;20029;-80
2023/12/13 08:06:15;;;;;;;2.05;0.80;;;9.60;99.90;;;;;;5063173;28;20037;-80
2023/12/13 08:08:41;;;;;;;1.85;0.65;;;9.60;99.90;;;;;;5045782;28;20323;-81
2023/12/13 08:11:08;;;;;;;2.05;0.60;;;9.60;99.90;;;;;;5043013;28;20025;-79
2023/12/13 08:13:34;;;;;;;3.60;1.00;;;9.60;99.90;;;;;;5061580;28;20404;-79
2023/12/13 08:16:00;;;;;;;2.80;0.80;;;9.60;99.90;;;;;;5047029;28;20025;-80
2023/12/13 08:18:26;;;;;;;2.83;0.80;;;9.70;99.90;;;;;;5073797;28;20104;-78
2023/12/13 08:20:52;;;;;;;3.70;0.90;;;9.70;99.90;;;;;;5043757;28;20517;-79
2023/12/13 08:23:17;;;;;;;3.45;1.05;;;9.70;99.90;;;;;;5046558;28;20029;-80
2023/12/13 08:25:44;;;;;;;3.90;0.90;;;9.70;99.90;;;;;;5045161;28;20060;-80
2023/12/13 08:28:09;;;;;;;4.60;0.90;;;9.70;99.90;;;;;;5075442;28;20064;-80
2023/12/13 08:30:35;;;;;;;3.45;0.90;;;9.70;99.90;;;;;;5044090;28;20054;-80
2023/12/13 08:33:01;;;;;;;3.17;1.17;;;9.70;99.90;;;;;;5033187;28;20043;-79
2023/12/13 08:35:27;;;;;;;6.38;1.10;;;9.80;99.90;;;;;;5045035;28;20087;-79
2023/12/13 08:37:54;;;;;;;2.20;0.80;;;9.70;99.90;;;;;;5034729;28;20041;-80
2023/12/13 08:40:20;;;;;;;2.90;0.90;;;9.80;99.90;;;;;;5043513;28;20063;-80
2023/12/13 08:42:46;;;;;;;2.97;0.73;;;9.80;99.90;;;;;;4994571;28;20083;-79
2023/12/13 08:45:12;;;;;;;4.20;0.90;;;9.80;99.90;;;;;;5051615;28;20837;-80
2023/12/13 08:47:39;;;;;;;4.60;1.15;;;9.80;99.90;;;;;;5040177;28;20029;-81
2023/12/13 08:50:05;;;;;;;3.58;0.90;;;9.80;99.90;;;;;;5051817;28;20033;-79
2023/12/13 08:52:30;;;;;;;2.25;0.90;;;9.80;99.90;;;;;;5044567;28;20106;-79
2023/12/13 08:54:56;;;;;;;3.38;0.80;;;9.80;99.90;;;;;;5045120;28;20445;-79
2023/12/13 08:57:22;;;;;;;4.00;0.60;;;9.90;99.90;;;;;;5035305;28;20517;-80
2023/12/13 08:59:47;;;;;;;3.88;0.80;;;9.90;99.90;;;;;;5027359;28;20049;-79
2023/12/13 09:02:13;;;;;;;4.43;1.00;;;10.00;99.90;;;;;;5028057;28;20057;-78
2023/12/13 09:04:39;;;;;;;2.75;0.70;;;10.00;99.90;;;;;;5037134;28;20112;-80
2023/12/13 09:07:04;;;;;;;2.40;0.80;;;10.00;99.90;;;;;;5019936;28;20160;-79
2023/12/13 09:09:31;;;;;;;2.97;0.93;;;10.10;99.90;;;;;;5051940;28;20410;-80
2023/12/13 09:12:00;;;;;;;2.03;0.60;;;10.10;99.90;;;;;;5027618;28;20478;-79
2023/12/13 09:14:27;;;;;;;2.55;0.80;;;10.10;99.90;;;;;;5036559;28;20040;-79
2023/12/13 09:16:53;;;;;;;4.60;0.70;;;10.10;99.90;;;;;;5047270;28;20021;-80
2023/12/13 09:19:19;;;;;;;6.30;0.70;;;10.10;99.90;;;;;;5032098;28;20064;-82
2023/12/13 09:21:44;;;;;;;4.00;0.95;;;10.10;99.90;;;;;;5046431;28;20121;-80
2023/12/13 09:24:10;;;;;;;2.60;0.60;;;10.20;99.90;;;;;;5046167;28;20036;-82
2023/12/13 09:26:37;;;;;;;3.10;0.65;;;10.20;99.90;;;;;;5037195;28;20090;-82
2023/12/13 09:29:03;;;;;;;3.85;0.70;;;10.20;99.90;;;;;;5036459;28;20549;-81
2023/12/13 09:31:29;;;;;;;4.85;0.80;;;10.20;99.90;;;;;;5037650;28;21102;-81
2023/12/13 09:33:55;;;;;;;4.18;0.90;;;10.20;99.90;;;;;;5038506;28;20480;-79
2023/12/13 09:36:21;;;;;;;4.82;1.10;;;10.30;99.90;;;;;;5036034;28;20037;-81
2023/12/13 09:38:47;;;;;;;4.35;0.70;;;10.20;99.90;;;;;;5052149;28;20037;-81
2023/12/13 09:41:30;;;;;;;4.15;0.80;;;10.20;99.90;;;;;;5045322;28;20552;-80
2023/12/13 09:43:57;;;;;;;3.58;0.70;;;10.20;99.90;;;;;;5036574;28;20044;-81
2023/12/13 09:46:24;;;;;;;2.97;0.70;;;10.20;99.90;;;;;;5036377;28;20037;-81
2023/12/13 09:48:51;;;;;;;4.85;1.00;;;10.30;99.90;;;;;;5043457;28;20075;-82
2023/12/13 09:51:19;;;;;;;3.33;0.98;;;10.40;99.90;;;;;;5044164;28;20036;-81
2023/12/13 09:53:49;;;;;;;3.90;1.33;;;10.40;99.90;;;;;;5035386;28;20075;-82
2023/12/13 09:56:15;;;;;;;4.13;1.17;;;10.50;99.90;;;;;;5035538;28;20040;-80
2023/12/13 09:58:40;;;;;;;3.67;0.98;;;10.50;99.90;;;;;;5035596;28;20049;-80
2023/12/13 10:01:12;;;;;;;5.55;1.45;;;10.60;99.90;;;;;;5043925;28;20045;-80
2023/12/13 10:03:42;;;;;;;2.53;0.90;;;10.60;99.90;;;;;;5035714;28;20056;-82
2023/12/13 10:06:07;;;;;;;1.50;0.60;;;10.60;99.90;;;;;;5051765;28;20041;-80
2023/12/13 10:08:34;;;;;;;4.80;1.60;;;10.70;99.90;;;;;;5034736;28;20021;-81
2023/12/13 10:11:05;;;;;;;4.63;1.45;;;10.60;99.90;;;;;;5027312;28;20818;-79
2023/12/13 10:13:31;;;;;;;5.25;1.65;;;10.60;99.90;;;;;;5051423;28;20155;-81
2023/12/13 10:16:10;;;;;;;2.95;1.20;;;10.60;99.90;;;;;;5036265;28;20145;-80
2023/12/13 10:18:36;;;;;;;4.45;1.10;;;10.70;99.90;;;;;;5030100;28;20037;-79
2023/12/13 10:21:03;;;;;;;2.67;1.25;;;10.70;99.90;;;;;;5044160;28;20575;-80
2023/12/13 10:23:29;;;;;;;5.50;1.73;;;10.70;99.90;;;;;;5033148;28;20071;-81
2023/12/13 10:25:55;;;;;;;5.38;1.80;;;10.60;99.90;;;;;;5032747;28;20029;-80
2023/12/13 10:28:22;;;;;;;2.70;1.30;;;10.70;99.90;;;;;;5039021;28;20067;-80
2023/12/13 10:30:51;;;;;;;3.53;1.25;;;10.60;99.90;;;;;;5033770;28;20052;-79
2023/12/13 10:33:17;;;;;;;5.85;1.27;;;10.60;99.90;;;;;;5042013;28;20049;-79
2023/12/13 10:35:43;;;;;;;4.18;1.35;;;10.60;99.90;;;;;;5066600;28;20526;-79
2023/12/13 10:38:14;;;;;;;4.38;1.20;;;10.60;99.90;;;;;;5032684;28;20033;-80
2023/12/13 10:40:43;;;;;;;3.67;1.73;;;10.50;99.90;;;;;;5034211;28;20116;-80
2023/12/13 10:43:11;;;;;;;3.85;1.27;;;10.60;99.90;;;;;;5033765;28;20033;-80
2023/12/13 10:45:43;;;;;;;2.38;1.15;;;10.60;99.90;;;;;;5034469;28;20025;-80
2023/12/13 10:48:15;;;;;;;2.65;1.15;;;10.50;99.90;;;;;;5050277;28;20021;-80
2023/12/13 10:50:44;;;;;;;3.92;1.00;;;10.60;99.90;;;;;;5033779;28;20478;-81
2023/12/13 10:53:11;;;;;;;1.90;1.00;;;10.60;99.90;;;;;;5036631;28;20166;-81
2023/12/13 10:55:39;;;;;;;2.22;0.77;;;10.50;99.90;;;;;;5036200;28;20021;-81
2023/12/13 10:58:05;;;;;;;3.63;1.27;;;10.50;99.90;;;;;;5050907;28;20033;-85
2023/12/13 11:00:32;;;;;;;3.63;1.05;;;10.50;99.90;;;;;;5050820;28;20445;-81
2023/12/13 11:03:15;;;;;;;4.55;1.13;;;10.50;99.90;;;;;;5025124;28;20033;-80
2023/12/13 11:05:41;;;;;;;3.20;1.10;;;10.50;99.90;;;;;;5034116;28;20961;-80
2023/12/13 11:08:16;;;;;;;2.45;1.40;;;10.50;99.90;;;;;;5032569;28;20037;-81
2023/12/13 11:10:53;;;;;;;3.95;0.98;;;10.50;99.90;;;;;;5017592;28;20374;-81
2023/12/13 11:13:25;;;;;;;3.22;0.80;;;10.50;99.90;;;;;;5025239;28;20040;-82
2023/12/13 11:15:51;;;;;;;3.25;1.05;;;10.50;99.90;;;;;;5041738;28;20029;-81
2023/12/13 11:18:17;;;;;;;3.00;1.33;;;10.50;99.90;;;;;;5047481;28;20036;-82
2023/12/13 11:20:54;;;;;;;4.03;1.75;;;10.50;99.90;;;;;;5025638;28;20285;-80
2023/12/13 11:23:26;;;;;;;3.13;1.15;;;10.40;99.90;;;;;;5049093;28;20116;-81
2023/12/13 11:25:54;;;;;;;2.60;1.10;;;10.30;99.90;;;;;;5042207;28;20059;-80
2023/12/13 11:28:24;;;;;;;1.98;0.70;;;10.30;99.90;;;;;;5048210;28;20392;-81
2023/12/13 11:30:53;;;;;;;;;;;10.30;99.90;;;;;;5050063;28;20099;-80
2023/12/13 11:33:22;;;;;;;2.20;0.80;;;10.30;99.90;;;;;;5042026;28;19925;-81
2023/12/13 11:35:50;;;;;;;2.17;0.70;;;10.40;99.90;;;;;;5050690;28;20460;-80
2023/12/13 11:38:16;;;;;;;1.60;0.57;;;10.30;99.90;;;;;;5040459;28;20029;-81
2023/12/13 11:40:43;;;;;;;2.60;0.70;;;10.40;99.90;;;;;;5025897;28;20063;-81
2023/12/13 11:43:09;;;;;;;2.60;0.73;;;10.40;99.90;;;;;;5042350;28;20505;-81
2023/12/13 11:45:34;;;;;;;3.08;1.05;;;10.40;99.90;;;;;;5025818;28;20029;-81
2023/12/13 11:48:01;;;;;;;3.10;0.90;;;10.30;99.90;;;;;;5032404;28;20567;-81
2023/12/13 11:50:27;;;;;;;1.50;0.68;;;10.30;99.90;;;;;;5040654;28;20031;-81
2023/12/13 11:52:53;;;;;;;3.03;1.25;;;10.30;99.90;;;;;;5042712;28;20068;-79
2023/12/13 11:55:22;;;;;;;2.33;0.80;;;10.30;99.90;;;;;;5041919;28;20072;-81
2023/12/13 11:57:50;;;;;;;4.30;0.93;;;10.30;99.90;;;;;;5032243;28;20098;-81
2023/12/13 12:00:20;;;;;;;2.97;0.85;;;10.30;99.90;;;;;;5033008;28;20069;-81
2023/12/13 12:02:46;;;;;;;2.53;1.02;;;10.30;99.90;;;;;;5036021;28;20041;-84
2023/12/13 12:05:15;;;;;;;2.63;1.10;;;10.30;99.90;;;;;;5043832;28;20060;-84
2023/12/13 12:07:40;;;;;;;2.08;0.73;;;10.40;99.90;;;;;;5035489;28;20471;-84
2023/12/13 12:10:07;;;;;;;3.70;0.90;;;10.30;99.90;;;;;;5034918;28;20021;-84
2023/12/13 12:12:35;;;;;;;2.45;0.70;;;10.30;99.90;;;;;;5035861;28;20101;-82
2023/12/13 12:15:06;;;;;;;2.25;0.80;;;10.30;99.90;;;;;;5036921;28;20025;-82
2023/12/13 12:17:32;;;;;;;2.97;0.70;;;10.30;99.90;;;;;;5029735;28;20124;-81
2023/12/13 12:19:59;;;;;;;1.90;0.70;;;10.20;99.90;;;;;;5045912;28;20025;-84
2023/12/13 12:22:25;;;;;;;2.58;0.73;;;10.20;99.90;;;;;;5054698;28;20057;-83
2023/12/13 12:24:51;;;;;;;2.78;0.80;;;10.20;99.90;;;;;;5046377;28;20116;-84
2023/12/13 12:27:23;;;;;;;3.08;1.05;;;10.20;99.90;;;;;;5055098;28;20071;-82
2023/12/13 12:29:50;;;;;;;2.55;0.73;;;10.20;99.90;;;;;;5054782;28;20082;-83
2023/12/13 12:32:16;;;;;;;1.98;0.90;;;10.20;99.90;;;;;;5045890;28;20489;-81
2023/12/13 12:34:49;;;;;;;2.67;0.90;;;10.20;99.90;;;;;;5030558;28;20043;-80
2023/12/13 12:37:16;;;;;;;3.47;1.40;;;10.20;99.90;;;;;;5048267;28;20037;-81
2023/12/13 12:39:41;;;;;;;2.60;1.00;;;10.20;99.90;;;;;;5046574;28;20481;-83
2023/12/13 12:42:07;;;;;;;2.53;0.93;;;10.20;99.90;;;;;;5031863;28;20037;-83
2023/12/13 12:44:33;;;;;;;2.78;1.08;;;10.20;99.90;;;;;;5055540;28;20097;-80
2023/12/13 12:46:58;;;;;;;4.45;1.30;;;10.20;99.90;;;;;;5047349;28;20029;-81
2023/12/13 12:49:24;;;;;;;5.03;1.65;;;10.20;99.90;;;;;;5052982;28;20516;-81
2023/12/13 12:51:51;;;;;;;3.55;1.45;;;10.20;99.90;;;;;;5037450;28;20044;-81